createdAt,value
2023-02-27T00:04:14.934Z,86.39
2023-02-27T00:09:18.052Z,86.98
2023-02-27T00:14:21.157Z,87.54
2023-02-27T00:19:24.157Z,88.06
2023-02-27T00:24:27.258Z,88.17
2023-02-27T00:29:30.360Z,88.42
2023-02-27T00:34:33.567Z,88.53
2023-02-27T00:39:36.776Z,88.51
2023-02-27T00:44:41.110Z,88.53
2023-02-27T00:49:44.155Z,88.63
2023-02-27T00:54:47.222Z,88.65
2023-02-27T00:59:50.322Z,88.71
2023-02-27T01:04:53.337Z,88.70
2023-02-27T01:09:56.639Z,88.75
2023-02-27T01:14:59.544Z,88.73
2023-02-27T01:20:04.092Z,88.48
2023-02-27T01:25:08.199Z,88.51
2023-02-27T01:30:12.848Z,88.41
2023-02-27T01:35:16.373Z,88.05
2023-02-27T01:40:19.833Z,87.49
2023-02-27T01:45:35.875Z,85.94
2023-02-27T01:50:45.855Z,86.42
2023-02-27T01:55:49.988Z,85.75
2023-02-27T02:00:53.668Z,85.59
2023-02-27T02:05:58.680Z,84.72
2023-02-27T02:11:03.618Z,84.14
2023-02-27T02:16:38.167Z,84.24
2023-02-27T02:21:53.435Z,84.62
2023-02-27T02:27:21.118Z,84.03
2023-02-27T02:32:43.172Z,84.20
2023-02-27T02:38:24.577Z,84.05
2023-02-27T02:43:46.730Z,84.20
2023-02-27T02:49:14.099Z,84.29
2023-02-27T02:54:31.232Z,84.68
2023-02-27T02:59:43.044Z,85.34
2023-02-27T03:04:59.244Z,85.54
2023-02-27T03:10:27.755Z,85.69
2023-02-27T03:15:40.001Z,85.79
2023-02-27T03:20:49.709Z,85.77
2023-02-27T03:25:54.564Z,85.94
2023-02-27T03:31:10.150Z,86.34
2023-02-27T03:36:49.427Z,86.72
2023-02-27T03:42:22.636Z,86.23
2023-02-27T03:47:26.064Z,85.83
2023-02-27T03:52:30.588Z,85.38
2023-02-27T03:57:36.772Z,85.26
2023-02-27T04:02:42.156Z,85.94
2023-02-27T04:07:57.109Z,85.85
2023-02-27T04:13:41.894Z,85.52
2023-02-27T04:19:04.758Z,85.47
2023-02-27T04:24:25.989Z,85.60
2023-02-27T04:29:51.010Z,85.60
2023-02-27T04:34:59.856Z,86.03
2023-02-27T04:40:10.654Z,85.85
2023-02-27T04:45:18.870Z,85.57
2023-02-27T04:50:37.436Z,85.57
2023-02-27T04:55:47.808Z,85.98
2023-02-27T05:00:57.288Z,86.57
2023-02-27T05:06:01.920Z,86.94
2023-02-27T05:11:07.885Z,86.99
2023-02-27T05:16:33.479Z,87.28
2023-02-27T05:21:59.761Z,87.50
2023-02-27T05:27:14.846Z,87.45
2023-02-27T05:32:49.904Z,87.45
2023-02-27T05:38:21.076Z,87.37
2023-02-27T05:43:31.105Z,87.31
2023-02-27T05:48:43.139Z,87.26
2023-02-27T05:53:53.310Z,87.28
2023-02-27T05:59:24.272Z,87.62
2023-02-27T06:04:27.590Z,87.80
2023-02-27T06:09:30.892Z,87.88
2023-02-27T06:14:33.897Z,87.78
2023-02-27T06:19:36.903Z,87.87
2023-02-27T06:24:40.006Z,88.01
2023-02-27T06:29:43.010Z,87.62
2023-02-27T06:34:46.211Z,87.37
2023-02-27T06:39:49.418Z,87.28
2023-02-27T06:44:52.628Z,86.71
2023-02-27T06:49:55.627Z,86.23
2023-02-27T06:54:59.758Z,86.20
2023-02-27T07:00:05.472Z,85.83
2023-02-27T07:05:12.232Z,85.25
2023-02-27T07:10:16.443Z,83.64
2023-02-27T07:15:19.552Z,82.18
2023-02-27T07:20:22.553Z,80.50
2023-02-27T07:25:25.668Z,79.27
2023-02-27T07:30:30.924Z,77.97
2023-02-27T07:35:34.330Z,76.30
2023-02-27T07:40:37.744Z,73.98
2023-02-27T07:45:41.162Z,73.99
2023-02-27T07:50:44.469Z,68.80
2023-02-27T07:55:47.879Z,66.23
2023-02-27T08:00:53.754Z,70.36
2023-02-27T08:05:56.968Z,73.32
2023-02-27T08:10:59.963Z,72.28
2023-02-27T08:16:03.207Z,67.24
2023-02-27T08:21:06.802Z,65.04
2023-02-27T08:26:09.890Z,64.08
2023-02-27T08:31:13.572Z,67.08
2023-02-27T08:36:17.023Z,63.53
2023-02-27T08:41:20.346Z,60.82
2023-02-27T08:46:23.443Z,59.38
2023-02-27T08:51:27.121Z,53.44
2023-02-27T08:56:30.873Z,50.83
2023-02-27T09:01:34.895Z,38.87
2023-02-27T09:06:38.314Z,31.19
2023-02-27T09:11:41.732Z,28.99
2023-02-27T09:16:45.601Z,25.51
2023-02-27T09:21:49.167Z,25.35
2023-02-27T09:26:52.784Z,24.85
2023-02-27T09:31:56.232Z,23.91
2023-02-27T09:37:01.523Z,27.14
2023-02-27T09:42:17.770Z,29.97
2023-02-27T09:47:28.888Z,31.42
2023-02-27T09:52:35.972Z,31.18
2023-02-27T09:57:52.278Z,29.87
2023-02-27T10:03:23.197Z,26.32
2023-02-27T10:08:38.426Z,27.49
2023-02-27T10:13:50.029Z,30.08
2023-02-27T10:18:58.569Z,30.00
2023-02-27T10:24:27.626Z,31.87
2023-02-27T10:29:43.074Z,34.27
2023-02-27T10:34:54.783Z,36.01
2023-02-27T10:40:06.343Z,38.41
2023-02-27T10:45:17.706Z,39.89
2023-02-27T10:50:25.602Z,41.58
2023-02-27T10:55:35.976Z,42.61
2023-02-27T11:00:39.482Z,43.56
2023-02-27T11:05:43.205Z,44.44
2023-02-27T11:10:57.380Z,44.85
2023-02-27T11:16:18.691Z,45.44
2023-02-27T11:21:25.871Z,45.02
2023-02-27T11:26:36.690Z,45.53
2023-02-27T11:31:44.234Z,46.06
2023-02-27T11:36:51.196Z,46.53
2023-02-27T11:41:56.974Z,46.80
2023-02-27T11:47:34.246Z,47.19
2023-02-27T11:52:57.448Z,47.56
2023-02-27T11:58:22.474Z,47.01
2023-02-27T12:03:48.438Z,46.60
2023-02-27T12:08:57.130Z,46.66
2023-02-27T12:14:18.470Z,46.31
2023-02-27T12:19:34.431Z,47.20
2023-02-27T12:24:53.984Z,46.73
2023-02-27T12:30:17.272Z,46.83
2023-02-27T12:35:28.425Z,47.71
2023-02-27T12:40:38.540Z,48.03
2023-02-27T12:45:42.418Z,48.66
2023-02-27T12:50:48.814Z,48.02
2023-02-27T12:56:20.911Z,47.67
2023-02-27T13:01:41.620Z,48.11
2023-02-27T13:07:02.959Z,48.11
2023-02-27T13:12:18.602Z,48.34
2023-02-27T13:17:28.474Z,48.09
2023-02-27T13:22:40.647Z,48.35
2023-02-27T13:27:53.067Z,48.36
2023-02-27T13:33:26.129Z,48.52
2023-02-27T13:38:54.888Z,48.62
2023-02-27T13:44:20.125Z,48.68
2023-02-27T13:49:29.678Z,48.72
2023-02-27T13:54:40.187Z,49.25
2023-02-27T14:00:01.898Z,49.81
2023-02-27T14:05:08.896Z,50.09
2023-02-27T14:10:25.408Z,50.11
2023-02-27T14:15:32.403Z,50.00
2023-02-27T14:20:36.221Z,50.23
2023-02-27T14:26:01.870Z,50.62
2023-02-27T14:31:32.709Z,50.67
2023-02-27T14:36:44.527Z,50.95
2023-02-27T14:42:27.093Z,51.15
2023-02-27T14:47:36.197Z,50.92
2023-02-27T14:52:44.119Z,51.33
2023-02-27T14:58:17.544Z,51.85
2023-02-27T15:03:26.661Z,52.19
2023-02-27T15:08:35.011Z,52.19
2023-02-27T15:13:40.064Z,52.44
2023-02-27T15:18:46.042Z,52.53
2023-02-27T15:24:00.511Z,52.56
2023-02-27T15:29:08.839Z,52.82
2023-02-27T15:34:14.929Z,53.62
2023-02-27T15:39:22.037Z,53.81
2023-02-27T15:44:30.541Z,54.01
2023-02-27T15:49:34.161Z,54.46
2023-02-27T15:54:37.165Z,55.05
2023-02-27T15:59:43.439Z,55.26
2023-02-27T16:04:47.583Z,55.73
2023-02-27T16:09:58.875Z,55.97
2023-02-27T16:15:27.463Z,56.20
2023-02-27T16:20:38.963Z,56.32
2023-02-27T16:25:59.174Z,56.26
2023-02-27T16:31:03.103Z,56.44
2023-02-27T16:36:21.907Z,56.92
2023-02-27T16:41:25.870Z,57.26
2023-02-27T16:46:31.495Z,57.47
2023-02-27T16:51:35.869Z,57.77
2023-02-27T16:56:40.977Z,58.78
2023-02-27T17:01:45.385Z,60.41
2023-02-27T17:06:49.829Z,60.77
2023-02-27T17:11:53.547Z,61.24
2023-02-27T17:16:58.567Z,62.51
2023-02-27T17:22:02.624Z,63.18
2023-02-27T17:27:06.519Z,64.27
2023-02-27T17:32:11.920Z,64.44
2023-02-27T17:37:15.729Z,64.55
2023-02-27T17:42:19.763Z,64.96
2023-02-27T17:47:23.279Z,64.72
2023-02-27T17:52:27.608Z,64.39
2023-02-27T17:57:31.234Z,64.94
2023-02-27T18:02:36.320Z,64.98
2023-02-27T18:07:40.607Z,65.89
2023-02-27T18:12:43.934Z,66.66
2023-02-27T18:17:47.433Z,67.53
2023-02-27T18:22:50.951Z,67.72
2023-02-27T18:27:58.437Z,66.50
2023-02-27T18:33:01.977Z,67.76
2023-02-27T18:38:05.180Z,68.00
2023-02-27T18:43:11.083Z,68.53
2023-02-27T18:48:17.738Z,68.62
2023-02-27T18:53:21.874Z,69.09
2023-02-27T18:58:26.100Z,69.49
2023-02-27T19:03:30.197Z,70.00
2023-02-27T19:08:34.835Z,70.43
2023-02-27T19:13:39.103Z,70.95
2023-02-27T19:18:43.247Z,71.61
2023-02-27T19:23:48.557Z,72.26
2023-02-27T19:28:54.548Z,72.43
2023-02-27T19:33:58.381Z,72.81
2023-02-27T19:39:03.491Z,70.25
2023-02-27T19:44:08.077Z,69.82
2023-02-27T19:49:11.590Z,70.68
2023-02-27T19:54:17.144Z,71.33
2023-02-27T19:59:25.776Z,71.70
2023-02-27T20:04:30.227Z,72.37
2023-02-27T20:09:34.462Z,74.42
2023-02-27T20:14:38.279Z,74.83
2023-02-27T20:19:42.417Z,75.40
2023-02-27T20:24:46.618Z,75.95
2023-02-27T20:29:57.536Z,76.05
2023-02-27T20:35:01.144Z,76.14
2023-02-27T20:40:09.169Z,76.32
2023-02-27T20:45:15.333Z,76.20
2023-02-27T20:50:19.998Z,76.52
2023-02-27T20:55:25.038Z,78.43
2023-02-27T21:00:33.482Z,79.19
2023-02-27T21:05:37.805Z,79.16
2023-02-27T21:10:41.833Z,79.86
2023-02-27T21:15:45.911Z,79.37
2023-02-27T21:20:49.068Z,79.17
2023-02-27T21:25:52.801Z,78.04
2023-02-27T21:30:55.908Z,78.25
2023-02-27T21:35:59.232Z,77.20
2023-02-27T21:41:10.414Z,77.37
2023-02-27T21:46:14.974Z,78.44
2023-02-27T21:51:33.013Z,79.07
2023-02-27T21:56:41.363Z,79.41
2023-02-27T22:01:47.680Z,80.15
2023-02-27T22:06:52.352Z,80.66
2023-02-27T22:11:55.762Z,80.56
2023-02-27T22:16:58.966Z,81.04
2023-02-27T22:22:02.079Z,81.30
2023-02-27T22:27:06.048Z,81.32
2023-02-27T22:32:09.119Z,81.91
2023-02-27T22:37:15.377Z,82.14
2023-02-27T22:42:18.393Z,82.75
2023-02-27T22:47:21.693Z,82.81
2023-02-27T22:52:24.911Z,82.85
2023-02-27T22:57:28.107Z,83.05
2023-02-27T23:02:33.673Z,83.19
2023-02-27T23:07:36.886Z,83.07
2023-02-27T23:12:39.886Z,83.52
2023-02-27T23:17:52.941Z,83.43
2023-02-27T23:23:01.145Z,83.87
2023-02-27T23:28:05.583Z,83.98
2023-02-27T23:33:08.589Z,83.75
2023-02-27T23:38:11.894Z,83.62
2023-02-27T23:43:15.511Z,83.64
2023-02-27T23:48:21.995Z,85.12
2023-02-27T23:53:25.102Z,85.45
2023-02-27T23:58:28.006Z,85.43
